Terminal Aerodrome Forecast
Issued by NWS Corpus Christi, TX

Current Version | Previous Version | Text Only | Print | Product List | Glossary On
Versions: 1 2 3 4 5 6 7 8 9 10 11 12 13 14
349
FTUS44 KCRP 181730
TAFCRP
TAF
KCRP 181730Z 1818/1918 18011G18KT P6SM SCT040
     FM182000 14015G22KT P6SM FEW040
     FM190200 15010KT P6SM FEW018
     FM190800 17005KT P6SM SCT016
     FM191400 18010KT P6SM SCT025=

USA.gov is the U.S. government's official web portal to all federal, state and local government web resources and services.